Time;durP1;ratioP1;P1;durP2;ratioP2;P2;SDS_P1;SDS_P2;PMS_P1;PMS_P2;Temp;Humidity;BMP_temperature;BMP_pressure;BME280_temperature;BME280_humidity;BME280_pressure;Samples;Min_cycle;Max_cycle;Signal;HPM_P1;HPM_P2
2023/06/14 00:01:15;;;;;;;1.40;0.90;;;20.30;72.90;;;;;;4975946;28;20493;-79
2023/06/14 00:03:42;;;;;;;1.47;0.90;;;20.20;73.60;;;;;;4991961;28;20486;-77
2023/06/14 00:06:09;;;;;;;1.47;0.90;;;20.10;73.60;;;;;;4976620;28;20481;-82
2023/06/14 00:08:36;;;;;;;1.43;0.90;;;20.10;73.80;;;;;;4993897;28;20692;-80
2023/06/14 00:11:02;;;;;;;1.47;0.90;;;20.00;74.10;;;;;;4975238;28;20458;-78
2023/06/14 00:13:29;;;;;;;1.50;0.90;;;20.00;74.40;;;;;;5002026;28;20495;-79
2023/06/14 00:15:57;;;;;;;1.47;0.90;;;19.90;74.50;;;;;;4978809;28;20823;-83
2023/06/14 00:18:26;;;;;;;1.70;1.27;;;19.80;74.10;;;;;;4995975;28;20681;-80
2023/06/14 00:20:53;;;;;;;1.47;0.90;;;19.80;74.80;;;;;;4978524;28;20521;-81
2023/06/14 00:23:20;;;;;;;1.40;1.00;;;19.70;75.20;;;;;;4998515;28;20495;-78
2023/06/14 00:25:47;;;;;;;1.47;0.90;;;19.70;74.50;;;;;;4993426;28;20541;-84
2023/06/14 00:28:14;;;;;;;1.50;0.90;;;19.60;74.80;;;;;;4998960;28;20508;-80
2023/06/14 00:30:41;;;;;;;1.47;0.90;;;19.60;74.70;;;;;;4988225;28;20468;-78
2023/06/14 00:33:09;;;;;;;1.47;0.90;;;19.60;75.50;;;;;;4990393;28;20477;-79
2023/06/14 00:35:36;;;;;;;1.50;0.90;;;19.50;75.60;;;;;;4992622;28;20898;-82
2023/06/14 00:38:03;;;;;;;1.43;0.90;;;19.40;75.70;;;;;;4994007;28;20477;-81
2023/06/14 00:40:29;;;;;;;1.47;1.00;;;19.40;75.70;;;;;;4993964;28;20493;-80
2023/06/14 00:42:56;;;;;;;1.47;0.90;;;19.30;75.70;;;;;;4986813;28;20489;-84
2023/06/14 00:45:23;;;;;;;1.50;0.90;;;19.30;75.80;;;;;;4991668;28;20467;-79
2023/06/14 00:47:52;;;;;;;1.47;0.90;;;19.30;77.40;;;;;;4986085;28;20601;-80
2023/06/14 00:50:21;;;;;;;1.47;0.90;;;19.20;77.10;;;;;;4995925;28;20465;-80
2023/06/14 00:52:48;;;;;;;1.47;0.93;;;19.20;77.60;;;;;;4987226;28;20504;-81
2023/06/14 00:55:15;;;;;;;1.47;1.00;;;19.10;77.80;;;;;;4993585;28;20904;-81
2023/06/14 00:57:42;;;;;;;1.50;0.90;;;19.10;77.20;;;;;;4991281;28;20880;-81
2023/06/14 01:00:10;;;;;;;1.40;0.90;;;19.00;77.60;;;;;;4990406;28;20847;-82
2023/06/14 01:02:37;;;;;;;1.43;1.00;;;19.00;78.50;;;;;;4989131;28;20492;-79
2023/06/14 01:05:06;;;;;;;1.47;0.90;;;18.90;78.30;;;;;;4994815;28;20874;-80
2023/06/14 01:07:42;;;;;;;1.43;0.90;;;18.90;79.10;;;;;;4989804;28;20508;-79
2023/06/14 01:10:32;;;;;;;1.43;0.90;;;18.90;79.40;;;;;;4992450;28;20800;-79
2023/06/14 01:13:04;;;;;;;1.47;0.90;;;18.80;79.70;;;;;;4988002;28;20489;-79
2023/06/14 01:15:32;;;;;;;1.50;1.00;;;18.80;79.60;;;;;;4989146;28;20832;-80
2023/06/14 01:18:03;;;;;;;1.43;1.00;;;18.70;79.90;;;;;;4991527;28;20480;-81
2023/06/14 01:20:31;;;;;;;1.47;0.90;;;18.70;79.20;;;;;;4993445;28;20465;-79
2023/06/14 01:22:59;;;;;;;1.50;0.90;;;18.70;80.50;;;;;;4986822;28;20485;-79
2023/06/14 01:25:27;;;;;;;1.47;0.90;;;18.60;80.30;;;;;;4990239;28;20762;-78
2023/06/14 01:27:56;;;;;;;1.50;1.00;;;18.60;80.30;;;;;;4986049;28;20477;-79
2023/06/14 01:30:26;;;;;;;1.43;1.00;;;18.50;80.60;;;;;;4988757;28;20465;-79
2023/06/14 01:32:54;;;;;;;1.50;0.90;;;18.50;81.00;;;;;;4985604;28;20568;-79
2023/06/14 01:35:21;;;;;;;1.47;0.90;;;18.50;80.40;;;;;;4995866;28;20507;-79
2023/06/14 01:37:49;;;;;;;1.47;0.90;;;18.40;80.40;;;;;;4977760;28;20477;-78
2023/06/14 01:40:19;;;;;;;1.43;0.93;;;18.40;80.60;;;;;;4987076;28;20875;-80
2023/06/14 01:42:47;;;;;;;1.40;0.90;;;18.30;80.80;;;;;;4988767;28;20485;-80
2023/06/14 01:45:15;;;;;;;1.50;0.90;;;18.30;81.20;;;;;;4999258;28;20464;-77
2023/06/14 01:47:42;;;;;;;1.50;1.00;;;18.30;81.60;;;;;;4988576;28;20492;-79
2023/06/14 01:50:09;;;;;;;1.43;0.90;;;18.20;80.90;;;;;;4999001;28;20461;-80
2023/06/14 01:52:38;;;;;;;1.47;1.00;;;18.20;81.40;;;;;;4987385;28;20485;-80
2023/06/14 01:55:05;;;;;;;1.47;0.90;;;18.20;82.30;;;;;;4999586;28;20536;-79
2023/06/14 01:57:33;;;;;;;1.47;1.00;;;18.10;81.80;;;;;;4988315;28;20482;-81
2023/06/14 02:00:00;;;;;;;1.43;0.97;;;18.10;82.20;;;;;;4997050;28;20467;-77
2023/06/14 02:02:27;;;;;;;1.43;1.00;;;18.00;82.30;;;;;;4987459;28;20493;-80
2023/06/14 02:04:57;;;;;;;1.43;0.90;;;18.00;82.70;;;;;;4999807;28;20549;-78
2023/06/14 02:07:23;;;;;;;1.47;0.90;;;18.00;83.00;;;;;;4989987;28;20483;-79
2023/06/14 02:09:50;;;;;;;1.43;0.90;;;17.90;83.10;;;;;;4998367;28;20468;-78
2023/06/14 02:12:17;;;;;;;1.40;0.90;;;17.90;83.60;;;;;;4988860;28;20493;-78
2023/06/14 02:14:45;;;;;;;1.40;0.90;;;17.90;83.30;;;;;;4998124;28;20457;-79
2023/06/14 02:17:12;;;;;;;1.43;0.90;;;17.80;83.30;;;;;;4989069;28;20484;-79
2023/06/14 02:19:39;;;;;;;1.47;0.90;;;17.80;83.10;;;;;;4998042;28;20530;-79
2023/06/14 02:22:06;;;;;;;1.40;0.90;;;17.80;83.40;;;;;;4987684;28;20497;-80
2023/06/14 02:24:33;;;;;;;1.60;1.40;;;17.70;83.20;;;;;;4997423;28;20524;-77
2023/06/14 02:27:00;;;;;;;1.47;0.90;;;17.70;83.50;;;;;;4987487;28;20481;-79
2023/06/14 02:29:27;;;;;;;1.43;1.00;;;17.60;83.60;;;;;;4997071;28;20496;-82
2023/06/14 02:31:55;;;;;;;1.40;0.90;;;17.60;83.20;;;;;;4989155;28;20779;-77
2023/06/14 02:34:21;;;;;;;1.43;0.93;;;17.60;84.10;;;;;;4996100;28;20485;-78
2023/06/14 02:36:49;;;;;;;1.43;0.90;;;17.50;83.30;;;;;;4986606;28;20493;-78
2023/06/14 02:39:17;;;;;;;1.47;0.90;;;17.50;83.00;;;;;;4996777;28;20995;-80
2023/06/14 02:41:44;;;;;;;1.50;0.90;;;17.50;83.50;;;;;;4987012;28;21100;-79
2023/06/14 02:44:12;;;;;;;1.47;0.90;;;17.40;83.50;;;;;;4995539;28;20496;-79
2023/06/14 02:46:39;;;;;;;1.40;0.90;;;17.40;84.20;;;;;;4987229;28;20481;-78
2023/06/14 02:49:07;;;;;;;1.43;1.00;;;17.40;84.10;;;;;;4997168;28;20489;-81
2023/06/14 02:51:34;;;;;;;1.40;0.90;;;17.40;83.90;;;;;;4987554;28;20485;-79
2023/06/14 02:54:01;;;;;;;1.47;1.00;;;17.30;84.10;;;;;;4997370;28;20485;-80
2023/06/14 02:56:28;;;;;;;1.47;1.00;;;17.30;84.20;;;;;;4984370;28;20490;-80
2023/06/14 02:58:55;;;;;;;1.47;1.00;;;17.30;84.90;;;;;;4993766;28;20500;-80
2023/06/14 03:01:23;;;;;;;1.43;0.97;;;17.20;84.70;;;;;;4986980;28;20484;-79
2023/06/14 03:03:49;;;;;;;1.50;0.93;;;17.20;85.40;;;;;;5000799;28;20492;-79
2023/06/14 03:06:18;;;;;;;1.50;1.00;;;17.20;85.80;;;;;;4983423;28;20469;-79
2023/06/14 03:08:45;;;;;;;1.40;1.00;;;17.20;86.10;;;;;;4997306;28;20581;-81
2023/06/14 03:11:12;;;;;;;1.43;0.90;;;17.20;87.10;;;;;;4987198;28;20507;-80
2023/06/14 03:13:40;;;;;;;1.40;0.97;;;17.10;86.00;;;;;;4999432;28;20488;-81
2023/06/14 03:16:08;;;;;;;1.43;0.90;;;17.10;85.90;;;;;;4987689;28;20486;-78
2023/06/14 03:18:36;;;;;;;1.47;1.00;;;17.10;85.70;;;;;;4996966;28;20489;-79
2023/06/14 03:21:03;;;;;;;1.50;1.00;;;17.10;86.30;;;;;;4987174;28;20860;-79
2023/06/14 03:23:31;;;;;;;1.50;0.90;;;17.00;86.30;;;;;;4997335;28;20485;-82
2023/06/14 03:25:58;;;;;;;1.50;1.10;;;17.00;86.10;;;;;;4988072;28;20453;-78
2023/06/14 03:28:25;;;;;;;1.43;0.90;;;17.00;86.10;;;;;;4997807;28;20467;-78
2023/06/14 03:30:52;;;;;;;1.47;0.90;;;17.00;86.30;;;;;;4986368;28;20456;-79
2023/06/14 03:33:19;;;;;;;1.43;1.00;;;17.00;86.30;;;;;;4995840;28;20485;-80
2023/06/14 03:35:46;;;;;;;1.43;1.00;;;17.00;87.10;;;;;;4998271;28;20811;-79
2023/06/14 03:38:12;;;;;;;1.47;0.90;;;17.00;85.90;;;;;;4985950;28;20507;-80
2023/06/14 03:40:40;;;;;;;1.47;1.00;;;17.00;87.10;;;;;;4996220;28;20529;-79
2023/06/14 03:43:07;;;;;;;1.50;1.20;;;17.00;86.50;;;;;;4998880;28;20513;-79
2023/06/14 03:45:34;;;;;;;1.40;1.00;;;16.90;86.30;;;;;;4992850;28;20452;-78
2023/06/14 03:48:01;;;;;;;1.47;0.90;;;16.90;87.20;;;;;;4995458;28;20480;-78
2023/06/14 03:50:28;;;;;;;1.43;1.00;;;16.90;86.70;;;;;;4985285;28;20471;-81
2023/06/14 03:52:54;;;;;;;1.47;0.90;;;16.90;86.50;;;;;;4983937;28;20493;-79
2023/06/14 03:55:21;;;;;;;1.50;1.00;;;16.90;87.40;;;;;;4984858;28;20824;-78
2023/06/14 03:57:49;;;;;;;1.43;0.90;;;16.90;86.70;;;;;;4992698;28;20485;-80
2023/06/14 04:00:18;;;;;;;1.47;0.90;;;17.00;87.10;;;;;;4990024;28;20493;-79
2023/06/14 04:02:44;;;;;;;1.50;1.00;;;17.00;86.90;;;;;;4998028;28;20488;-77
2023/06/14 04:05:11;;;;;;;1.43;0.90;;;17.00;87.20;;;;;;4988466;28;20465;-79
2023/06/14 04:07:39;;;;;;;1.47;0.90;;;17.00;87.20;;;;;;4985009;28;21011;-75
2023/06/14 04:10:08;;;;;;;1.43;1.00;;;17.00;87.00;;;;;;4990187;28;20482;-81
2023/06/14 04:12:35;;;;;;;1.47;1.00;;;17.00;86.90;;;;;;4985688;28;20522;-78
2023/06/14 04:15:05;;;;;;;1.40;0.90;;;17.10;87.40;;;;;;4984378;28;20466;-82
2023/06/14 04:17:33;;;;;;;1.43;1.00;;;17.10;87.30;;;;;;4982286;28;20496;-80
2023/06/14 04:20:00;;;;;;;1.43;1.00;;;17.10;87.40;;;;;;4992760;28;20856;-78
2023/06/14 04:22:28;;;;;;;1.43;1.00;;;17.10;87.40;;;;;;4984995;28;20495;-78
2023/06/14 04:24:56;;;;;;;5.50;1.33;;;17.10;88.90;;;;;;4983957;28;20472;-77
2023/06/14 04:27:25;;;;;;;1.47;0.90;;;17.20;89.00;;;;;;4981300;28;20485;-81
2023/06/14 04:29:56;;;;;;;1.47;1.00;;;17.20;89.20;;;;;;4984712;28;20473;-79
2023/06/14 04:32:25;;;;;;;1.43;0.90;;;17.20;88.80;;;;;;4979733;28;20492;-81
2023/06/14 04:34:53;;;;;;;1.47;1.00;;;17.30;88.20;;;;;;4988846;28;21114;-77
2023/06/14 04:37:20;;;;;;;1.43;0.90;;;17.40;88.50;;;;;;4987572;28;20512;-78
2023/06/14 04:39:48;;;;;;;1.40;0.90;;;17.50;88.60;;;;;;4991022;28;20492;-78
2023/06/14 04:42:15;;;;;;;1.43;0.90;;;17.60;87.80;;;;;;4982173;28;20516;-78
2023/06/14 04:44:43;;;;;;;1.43;0.90;;;17.70;89.40;;;;;;4987174;28;20476;-80
2023/06/14 04:47:11;;;;;;;1.47;0.90;;;17.90;88.40;;;;;;4980051;28;20575;-80
2023/06/14 04:49:39;;;;;;;1.47;1.00;;;18.00;88.20;;;;;;4998388;28;20460;-77
2023/06/14 04:52:07;;;;;;;1.43;1.00;;;18.20;87.70;;;;;;4983558;28;20473;-77
2023/06/14 04:54:36;;;;;;;1.43;0.90;;;18.40;87.70;;;;;;4990559;28;20486;-76
2023/06/14 04:57:05;;;;;;;1.43;1.00;;;18.60;87.30;;;;;;4982118;28;20544;-78
2023/06/14 04:59:33;;;;;;;1.47;0.90;;;18.90;85.70;;;;;;4992043;28;20918;-78
2023/06/14 05:02:00;;;;;;;1.47;1.00;;;19.10;85.20;;;;;;4984087;28;20779;-76
2023/06/14 05:04:27;;;;;;;1.47;0.90;;;19.30;83.10;;;;;;4992741;28;20575;-78
2023/06/14 05:06:56;;;;;;;1.47;1.00;;;19.40;83.40;;;;;;4979721;28;20476;-76
2023/06/14 05:09:23;;;;;;;1.47;0.90;;;19.60;83.00;;;;;;4992350;28;20457;-76
2023/06/14 05:11:50;;;;;;;1.47;0.97;;;19.80;82.10;;;;;;4983224;28;20491;-79
2023/06/14 05:14:17;;;;;;;1.43;1.00;;;19.90;81.20;;;;;;5000837;28;20487;-78
2023/06/14 05:16:44;;;;;;;1.47;1.00;;;20.10;81.70;;;;;;4988101;28;20709;-77
2023/06/14 05:19:11;;;;;;;1.43;0.90;;;20.30;81.60;;;;;;4988899;28;20488;-78
2023/06/14 05:21:38;;;;;;;1.47;0.90;;;20.40;81.80;;;;;;4978809;28;21010;-78
2023/06/14 05:24:06;;;;;;;1.50;0.97;;;20.50;82.20;;;;;;4991695;28;20484;-79
2023/06/14 05:26:33;;;;;;;1.43;0.90;;;20.70;80.10;;;;;;4980781;28;20969;-79
2023/06/14 05:29:01;;;;;;;1.47;0.90;;;20.90;79.70;;;;;;4992309;28;20952;-76
2023/06/14 05:31:28;;;;;;;1.50;0.90;;;21.10;78.30;;;;;;4979090;28;20480;-77
2023/06/14 05:33:55;;;;;;;1.50;0.90;;;21.10;76.80;;;;;;4990367;28;20492;-79
2023/06/14 05:36:22;;;;;;;1.50;0.90;;;21.10;75.60;;;;;;4984692;28;20491;-78
2023/06/14 05:38:49;;;;;;;1.43;0.90;;;21.30;75.20;;;;;;4995879;28;20486;-77
2023/06/14 05:41:17;;;;;;;1.47;0.90;;;21.30;76.00;;;;;;4980044;28;20489;-76
2023/06/14 05:43:44;;;;;;;1.50;0.90;;;21.40;74.80;;;;;;4991773;28;20508;-76
2023/06/14 05:46:11;;;;;;;1.47;0.90;;;21.40;75.10;;;;;;4986453;28;20542;-77
2023/06/14 05:48:37;;;;;;;1.47;0.90;;;21.50;74.30;;;;;;4990257;28;20464;-76
2023/06/14 05:51:08;;;;;;;1.50;0.90;;;21.50;74.90;;;;;;4980205;28;20469;-78
2023/06/14 05:53:35;;;;;;;1.47;0.90;;;21.60;73.20;;;;;;4991779;28;20481;-81
2023/06/14 05:56:02;;;;;;;1.50;0.90;;;21.70;72.80;;;;;;4983125;28;20470;-77
2023/06/14 05:58:30;;;;;;;1.50;1.00;;;21.80;72.20;;;;;;4993253;28;20493;-78
2023/06/14 06:00:57;;;;;;;1.50;0.90;;;21.80;72.30;;;;;;4977817;28;20453;-78
2023/06/14 06:03:24;;;;;;;1.50;0.90;;;21.90;71.30;;;;;;4978702;28;20481;-78
2023/06/14 06:05:51;;;;;;;1.50;0.90;;;22.00;71.00;;;;;;4989574;28;20483;-77
2023/06/14 06:08:18;;;;;;;1.47;0.87;;;22.10;71.10;;;;;;5004201;28;20464;-77
2023/06/14 06:10:45;;;;;;;1.47;0.90;;;22.10;70.20;;;;;;4993172;28;20552;-79
2023/06/14 06:13:12;;;;;;;1.47;0.90;;;22.20;71.90;;;;;;4990690;28;20476;-77
2023/06/14 06:15:40;;;;;;;1.47;0.90;;;22.40;71.20;;;;;;4992067;28;20545;-78
2023/06/14 06:18:07;;;;;;;1.57;1.20;;;22.60;70.00;;;;;;4986581;28;20480;-78
2023/06/14 06:20:34;;;;;;;1.50;0.90;;;22.60;70.10;;;;;;4990168;28;20465;-75
2023/06/14 06:23:01;;;;;;;1.47;0.90;;;22.60;70.70;;;;;;4979413;28;20580;-77
2023/06/14 06:25:28;;;;;;;1.43;0.90;;;22.60;69.70;;;;;;4988887;28;20844;-78
2023/06/14 06:27:56;;;;;;;1.43;0.90;;;22.50;70.00;;;;;;4980670;28;20547;-78
2023/06/14 06:30:23;;;;;;;1.43;0.90;;;22.70;70.60;;;;;;4988626;28;20504;-77
2023/06/14 06:32:51;;;;;;;1.43;0.90;;;23.00;69.50;;;;;;4978850;28;20484;-76
2023/06/14 06:35:18;;;;;;;1.47;0.90;;;23.20;69.70;;;;;;4990401;28;20469;-77
2023/06/14 06:37:45;;;;;;;1.50;0.90;;;23.50;69.10;;;;;;4979143;28;20847;-77
2023/06/14 06:40:12;;;;;;;1.50;0.90;;;23.60;68.40;;;;;;4990479;28;20492;-77
2023/06/14 06:42:39;;;;;;;1.43;0.90;;;23.70;67.40;;;;;;4983759;28;20963;-75
2023/06/14 06:45:06;;;;;;;1.43;0.90;;;23.90;66.70;;;;;;4993440;28;20468;-76
2023/06/14 06:47:33;;;;;;;1.50;0.90;;;24.00;67.30;;;;;;4980501;28;20711;-76
2023/06/14 06:50:01;;;;;;;1.43;0.90;;;23.90;66.30;;;;;;4991403;28;20465;-78
2023/06/14 06:52:29;;;;;;;1.60;1.40;;;23.80;66.70;;;;;;4967209;28;20490;-78
2023/06/14 06:54:55;;;;;;;1.47;0.90;;;24.00;67.40;;;;;;4992207;28;20468;-77
2023/06/14 06:57:23;;;;;;;1.47;0.90;;;24.20;66.50;;;;;;4987584;28;20907;-77
2023/06/14 06:59:50;;;;;;;1.50;0.90;;;24.50;66.50;;;;;;4989300;28;20488;-77
2023/06/14 07:02:17;;;;;;;1.50;0.90;;;24.70;67.10;;;;;;4980411;28;20983;-77
2023/06/14 07:04:44;;;;;;;1.50;0.90;;;24.90;66.10;;;;;;4993671;28;20472;-79
2023/06/14 07:07:12;;;;;;;1.47;0.80;;;25.10;64.40;;;;;;4988591;28;20508;-78
2023/06/14 07:09:38;;;;;;;2.33;1.10;;;25.30;65.00;;;;;;4995698;28;20975;-77
2023/06/14 07:12:06;;;;;;;1.47;0.80;;;25.30;64.40;;;;;;4983652;28;20884;-78
2023/06/14 07:14:33;;;;;;;1.47;0.90;;;25.50;63.60;;;;;;4992243;28;20464;-78
2023/06/14 07:17:00;;;;;;;1.50;0.80;;;25.60;62.90;;;;;;4981425;28;20483;-78
2023/06/14 07:19:26;;;;;;;1.43;0.80;;;25.80;61.90;;;;;;4990746;28;20970;-78
2023/06/14 07:21:54;;;;;;;1.43;0.90;;;25.90;60.50;;;;;;4980662;28;20484;-77
2023/06/14 07:24:22;;;;;;;1.43;0.90;;;25.60;60.10;;;;;;4991829;28;20488;-77
2023/06/14 07:26:49;;;;;;;1.40;0.83;;;25.30;59.40;;;;;;4976296;28;20488;-76
2023/06/14 07:29:16;;;;;;;1.47;0.80;;;25.30;61.10;;;;;;4983803;28;20452;-76
2023/06/14 07:31:43;;;;;;;1.43;0.90;;;25.30;59.60;;;;;;4978562;28;20492;-78
2023/06/14 07:34:10;;;;;;;1.40;0.80;;;25.30;59.20;;;;;;4990286;28;21008;-78
2023/06/14 07:36:37;;;;;;;1.47;0.90;;;25.40;59.20;;;;;;4980847;28;20488;-76
2023/06/14 07:39:06;;;;;;;1.43;0.83;;;25.40;59.20;;;;;;4992578;28;20543;-79
2023/06/14 07:41:34;;;;;;;1.40;0.80;;;25.50;59.50;;;;;;4974392;28;20485;-79
2023/06/14 07:44:01;;;;;;;1.40;0.80;;;25.70;58.70;;;;;;4992493;28;20495;-78
2023/06/14 07:46:27;;;;;;;1.40;0.80;;;25.60;58.40;;;;;;4988186;28;20480;-77
2023/06/14 07:48:54;;;;;;;1.43;0.83;;;25.60;58.80;;;;;;5002473;28;20998;-78
2023/06/14 07:51:22;;;;;;;1.50;0.90;;;25.70;58.70;;;;;;4994745;28;20480;-78
2023/06/14 07:53:49;;;;;;;1.43;0.83;;;25.90;59.50;;;;;;5000691;28;20479;-77
2023/06/14 07:56:16;;;;;;;1.43;0.90;;;26.20;58.40;;;;;;4980951;28;21058;-77
2023/06/14 07:58:44;;;;;;;1.50;1.00;;;26.30;57.60;;;;;;4999116;28;20473;-75
2023/06/14 08:01:12;;;;;;;1.43;0.80;;;26.40;57.10;;;;;;4980652;28;20485;-75
2023/06/14 08:03:39;;;;;;;1.80;1.30;;;26.50;58.10;;;;;;4993962;28;20488;-74
2023/06/14 08:06:07;;;;;;;1.50;0.80;;;26.60;56.10;;;;;;4975597;28;20484;-77
2023/06/14 08:08:34;;;;;;;1.47;0.80;;;26.70;55.20;;;;;;4996017;28;20778;-76
2023/06/14 08:11:01;;;;;;;1.50;0.90;;;26.80;54.80;;;;;;4979597;28;20979;-78
2023/06/14 08:13:28;;;;;;;1.47;0.80;;;26.90;53.80;;;;;;4988373;28;20480;-77
2023/06/14 08:15:57;;;;;;;1.47;0.80;;;26.90;53.70;;;;;;4978572;28;20460;-76
2023/06/14 08:18:24;;;;;;;1.40;0.80;;;27.00;54.00;;;;;;4999445;28;20597;-78
2023/06/14 08:20:52;;;;;;;1.50;0.90;;;27.20;54.50;;;;;;4982388;28;20487;-77
2023/06/14 08:23:20;;;;;;;1.60;1.10;;;27.40;52.90;;;;;;4995802;28;20488;-81
2023/06/14 08:25:47;;;;;;;1.40;0.80;;;27.50;53.30;;;;;;4987555;28;20845;-79
2023/06/14 08:28:14;;;;;;;1.43;0.80;;;27.60;53.10;;;;;;4999564;28;20460;-76
2023/06/14 08:30:42;;;;;;;1.47;0.80;;;27.70;53.30;;;;;;4996881;28;20848;-76
2023/06/14 08:33:10;;;;;;;1.43;0.80;;;27.70;52.40;;;;;;4982926;28;20562;-76
2023/06/14 08:35:39;;;;;;;1.43;0.80;;;27.30;52.30;;;;;;4993312;28;20455;-76
2023/06/14 08:38:06;;;;;;;1.50;0.80;;;27.20;54.30;;;;;;4985635;28;21108;-78
2023/06/14 08:40:38;;;;;;;3.63;2.87;;;27.40;54.20;;;;;;4995818;28;20971;-78
2023/06/14 08:43:05;;;;;;;1.43;0.80;;;27.70;54.40;;;;;;4980879;28;20978;-77
2023/06/14 08:45:32;;;;;;;1.47;0.80;;;28.00;54.00;;;;;;5000329;28;20467;-80
2023/06/14 08:48:01;;;;;;;1.43;0.80;;;28.20;53.30;;;;;;4987572;28;21108;-76
2023/06/14 08:50:39;;;;;;;1.43;0.90;;;28.30;53.80;;;;;;4996717;28;20467;-77
2023/06/14 08:53:10;;;;;;;1.43;0.80;;;28.30;53.80;;;;;;4985603;28;20476;-77
2023/06/14 08:55:39;;;;;;;1.47;0.80;;;28.40;53.70;;;;;;4994036;28;20955;-77
2023/06/14 08:58:09;;;;;;;1.47;0.80;;;28.20;52.90;;;;;;4984035;28;20499;-79
2023/06/14 09:00:38;;;;;;;1.43;0.80;;;28.20;54.00;;;;;;4992481;28;20545;-77
2023/06/14 09:03:10;;;;;;;1.50;0.80;;;28.40;53.60;;;;;;4979626;28;20476;-78
2023/06/14 09:05:39;;;;;;;1.43;0.80;;;28.30;53.20;;;;;;4999521;28;20466;-78
2023/06/14 09:08:06;;;;;;;1.43;0.80;;;28.20;53.50;;;;;;4986238;28;20472;-78
2023/06/14 09:10:34;;;;;;;1.50;0.80;;;28.20;54.70;;;;;;5002969;28;20463;-79
2023/06/14 09:13:02;;;;;;;1.43;0.80;;;28.30;53.50;;;;;;4992191;28;20487;-76
2023/06/14 09:15:30;;;;;;;1.50;1.00;;;28.50;54.10;;;;;;4997249;28;20461;-77
2023/06/14 09:17:57;;;;;;;1.47;0.80;;;28.50;54.30;;;;;;4985380;28;21088;-81
2023/06/14 09:20:25;;;;;;;1.47;0.80;;;28.40;54.00;;;;;;4995998;28;20233;-77
2023/06/14 09:22:54;;;;;;;1.40;0.80;;;28.40;54.10;;;;;;4979678;28;20575;-77
2023/06/14 09:25:22;;;;;;;1.50;0.90;;;28.30;53.10;;;;;;4999442;28;20467;-76
2023/06/14 09:27:49;;;;;;;1.63;1.23;;;28.30;53.90;;;;;;4983387;28;20983;-79
2023/06/14 09:30:16;;;;;;;1.43;0.80;;;28.40;54.50;;;;;;4999213;28;20887;-80
2023/06/14 09:32:43;;;;;;;1.43;0.80;;;28.50;54.80;;;;;;4983910;28;20484;-79
2023/06/14 09:35:10;;;;;;;1.40;0.80;;;28.50;54.10;;;;;;5002295;28;20527;-77
2023/06/14 09:37:38;;;;;;;1.47;0.80;;;28.50;54.30;;;;;;4987707;28;20480;-77
2023/06/14 09:40:08;;;;;;;1.50;0.90;;;28.50;55.80;;;;;;4997494;28;20546;-77
2023/06/14 09:42:35;;;;;;;1.43;0.80;;;28.70;55.30;;;;;;4983676;28;20649;-78
2023/06/14 09:45:03;;;;;;;1.47;0.90;;;28.80;55.20;;;;;;4996835;28;20464;-77
2023/06/14 09:47:30;;;;;;;1.43;0.80;;;28.80;55.40;;;;;;4980909;28;20781;-79
2023/06/14 09:49:57;;;;;;;1.43;0.80;;;28.80;55.90;;;;;;4993494;28;20869;-78
2023/06/14 09:52:26;;;;;;;1.40;0.80;;;28.70;55.80;;;;;;4968611;28;20486;-79
2023/06/14 09:54:55;;;;;;;1.50;1.00;;;28.70;57.00;;;;;;4989761;28;21004;-77
2023/06/14 09:57:25;;;;;;;1.47;0.90;;;28.70;56.20;;;;;;4971962;28;20524;-78
2023/06/14 09:59:56;;;;;;;1.47;0.80;;;28.60;56.70;;;;;;4994495;28;20483;-77
2023/06/14 10:02:26;;;;;;;1.43;0.80;;;28.70;57.10;;;;;;4984102;28;20615;-77
2023/06/14 10:05:00;;;;;;;1.40;0.80;;;28.90;56.40;;;;;;4995166;28;20463;-79
2023/06/14 10:07:30;;;;;;;1.50;1.00;;;29.00;54.20;;;;;;4983215;28;20488;-80
2023/06/14 10:09:58;;;;;;;1.40;0.80;;;28.90;53.40;;;;;;4995609;28;20461;-80
2023/06/14 10:12:27;;;;;;;1.43;0.80;;;28.80;54.40;;;;;;4986093;28;20896;-78
2023/06/14 10:14:54;;;;;;;1.40;0.80;;;28.90;53.90;;;;;;5001752;28;20851;-77
2023/06/14 10:17:27;;;;;;;1.47;0.80;;;29.00;54.70;;;;;;4985802;28;20529;-81
2023/06/14 10:19:59;;;;;;;1.43;0.80;;;29.00;53.70;;;;;;4995334;28;20480;-76
2023/06/14 10:22:34;;;;;;;1.40;0.80;;;28.90;53.70;;;;;;4986120;28;20707;-77
2023/06/14 10:25:07;;;;;;;1.97;1.47;;;28.70;54.90;;;;;;5000781;28;21004;-78
2023/06/14 10:27:36;;;;;;;1.40;0.80;;;28.70;55.60;;;;;;4988010;28;20491;-75
2023/06/14 10:30:08;;;;;;;1.47;0.80;;;28.90;55.50;;;;;;4998523;28;20978;-79
2023/06/14 10:32:34;;;;;;;1.40;0.80;;;29.00;55.40;;;;;;4971818;28;20484;-79
2023/06/14 10:35:05;;;;;;;1.47;0.80;;;29.10;55.70;;;;;;4998240;28;20467;-78
2023/06/14 10:37:33;;;;;;;1.47;0.80;;;29.20;55.70;;;;;;4990530;28;20802;-78
2023/06/14 10:40:00;;;;;;;1.40;0.80;;;29.40;55.70;;;;;;4996667;28;20492;-79
2023/06/14 10:42:32;;;;;;;1.60;1.20;;;29.50;55.70;;;;;;4985873;28;20500;-80
2023/06/14 10:45:02;;;;;;;1.40;0.80;;;29.60;55.60;;;;;;4999075;28;20504;-76
2023/06/14 10:47:30;;;;;;;1.47;0.80;;;29.70;55.20;;;;;;4985023;28;20484;-76
2023/06/14 10:50:05;;;;;;;1.40;0.80;;;29.90;56.40;;;;;;4991209;28;20519;-77
2023/06/14 10:52:35;;;;;;;1.40;0.80;;;30.10;54.80;;;;;;4985176;28;20491;-78
2023/06/14 10:55:10;;;;;;;1.43;0.80;;;30.20;55.00;;;;;;4992711;28;20485;-78
2023/06/14 10:57:38;;;;;;;1.77;1.37;;;30.30;55.00;;;;;;4985884;28;20476;-80
2023/06/14 11:00:16;;;;;;;1.40;0.90;;;30.30;55.20;;;;;;4993388;28;20547;-78
2023/06/14 11:03:21;;;;;;;1.40;0.80;;;30.40;55.20;;;;;;4981087;28;20591;-76
2023/06/14 11:05:52;;;;;;;1.40;0.80;;;30.40;55.80;;;;;;4986991;28;20739;-79
2023/06/14 11:08:41;;;;;;;1.40;0.80;;;30.60;55.50;;;;;;4994880;28;20887;-79
2023/06/14 11:11:09;;;;;;;1.40;0.80;;;30.50;54.70;;;;;;4982850;28;20513;-78
2023/06/14 11:13:40;;;;;;;1.40;0.80;;;30.60;55.90;;;;;;5001622;28;20288;-79
2023/06/14 11:16:13;;;;;;;1.43;0.80;;;30.70;54.60;;;;;;4986190;28;20240;-77
2023/06/14 11:18:40;;;;;;;1.40;0.80;;;30.60;54.80;;;;;;5000571;28;20206;-80
2023/06/14 11:21:08;;;;;;;1.40;0.80;;;30.60;54.90;;;;;;4988178;28;20274;-77
2023/06/14 11:23:36;;;;;;;1.43;0.80;;;30.70;54.80;;;;;;4987148;28;20228;-77
2023/06/14 11:26:04;;;;;;;1.43;0.80;;;30.70;55.20;;;;;;4983548;28;20228;-78
2023/06/14 11:28:40;;;;;;;1.43;0.80;;;30.70;54.60;;;;;;4985400;28;20208;-77
2023/06/14 11:31:07;;;;;;;1.40;0.80;;;30.60;55.00;;;;;;4983714;28;20764;-81
2023/06/14 11:33:35;;;;;;;1.40;0.80;;;30.50;54.60;;;;;;4985509;28;20225;-80
2023/06/14 11:36:06;;;;;;;1.40;0.80;;;30.70;55.40;;;;;;4982992;28;20209;-79
2023/06/14 11:38:37;;;;;;;1.40;0.80;;;30.70;55.30;;;;;;4993139;28;20208;-80
2023/06/14 11:41:04;;;;;;;1.40;0.80;;;30.70;54.60;;;;;;4980657;28;20265;-75
2023/06/14 11:43:32;;;;;;;1.40;0.80;;;30.80;53.60;;;;;;4979328;28;20303;-80
2023/06/14 11:45:59;;;;;;;1.40;0.80;;;30.70;54.70;;;;;;4988741;28;20276;-78
2023/06/14 11:48:39;;;;;;;1.42;0.80;;;30.90;55.40;;;;;;5001501;28;20634;-79
2023/06/14 11:51:06;;;;;;;1.40;0.80;;;31.00;54.80;;;;;;4983422;28;20234;-78
2023/06/14 11:53:34;;;;;;;1.40;0.80;;;31.30;54.60;;;;;;4998994;28;20260;-78
2023/06/14 11:56:02;;;;;;;1.40;0.80;;;31.60;54.20;;;;;;4985373;28;20229;-75
2023/06/14 11:58:30;;;;;;;1.40;0.80;;;31.60;53.20;;;;;;5002887;28;20213;-77
2023/06/14 12:00:57;;;;;;;1.40;0.80;;;31.50;53.20;;;;;;4987405;28;20228;-78
2023/06/14 12:03:28;;;;;;;1.42;0.80;;;31.50;53.20;;;;;;5000355;28;20274;-80
2023/06/14 12:06:08;;;;;;;1.40;0.80;;;31.40;52.50;;;;;;4984451;28;20213;-76
2023/06/14 12:08:39;;;;;;;1.40;0.80;;;31.30;53.80;;;;;;4993529;28;20206;-80
2023/06/14 12:11:08;;;;;;;1.40;0.80;;;31.40;54.00;;;;;;4982180;28;20674;-78
2023/06/14 12:13:36;;;;;;;1.40;0.80;;;31.60;53.40;;;;;;4992801;28;20320;-78
2023/06/14 12:16:04;;;;;;;1.40;0.80;;;31.70;52.40;;;;;;4981222;28;20213;-79
2023/06/14 12:18:35;;;;;;;1.40;0.80;;;31.70;51.00;;;;;;4979325;28;20238;-77
2023/06/14 12:21:06;;;;;;;1.40;0.80;;;31.60;50.50;;;;;;4982773;28;20207;-77
2023/06/14 12:23:48;;;;;;;1.40;0.80;;;31.60;51.00;;;;;;4994888;28;20592;-77
2023/06/14 12:26:16;;;;;;;1.40;0.80;;;31.40;50.80;;;;;;4992701;28;20663;-74
2023/06/14 12:28:43;;;;;;;1.40;0.80;;;31.20;51.80;;;;;;4996308;28;20209;-75
2023/06/14 12:31:12;;;;;;;1.40;0.80;;;31.10;50.50;;;;;;4986670;28;20247;-76
2023/06/14 12:33:39;;;;;;;1.40;0.80;;;31.00;51.60;;;;;;4998473;28;20252;-79
2023/06/14 12:36:07;;;;;;;1.40;0.80;;;30.90;50.90;;;;;;4985807;28;20241;-78
2023/06/14 12:38:34;;;;;;;1.40;0.80;;;30.90;50.00;;;;;;5002239;28;20209;-76
2023/06/14 12:41:02;;;;;;;1.40;0.90;;;31.00;50.80;;;;;;4986482;28;20201;-77
2023/06/14 12:43:29;;;;;;;1.40;0.80;;;31.10;50.70;;;;;;4999699;28;20247;-77
2023/06/14 12:45:56;;;;;;;1.40;0.80;;;31.20;50.90;;;;;;4983427;28;20206;-77
2023/06/14 12:48:24;;;;;;;1.40;0.80;;;31.50;50.70;;;;;;4997785;28;20220;-80
2023/06/14 12:50:51;;;;;;;1.40;0.80;;;31.90;50.70;;;;;;4985627;28;20243;-79
2023/06/14 12:53:17;;;;;;;1.40;0.80;;;32.00;50.60;;;;;;4983171;28;20500;-79